createdAt,value
2023-05-10T00:00:23.600Z,89431.63
2023-05-10T00:02:50.947Z,89432.38
2023-05-10T00:05:17.993Z,89431.16
2023-05-10T00:07:45.137Z,89434.09
2023-05-10T00:10:12.811Z,89434.34
2023-05-10T00:12:39.853Z,89433.38
2023-05-10T00:15:07.700Z,89439.19
2023-05-10T00:17:34.576Z,89430.22
2023-05-10T00:20:01.577Z,89424.38
2023-05-10T00:22:28.522Z,89429.91
2023-05-10T00:24:55.387Z,89434.56
2023-05-10T00:27:22.245Z,89436.16
2023-05-10T00:29:49.118Z,89427.69
2023-05-10T00:32:16.056Z,89423.50
2023-05-10T00:34:43.060Z,89422.31
2023-05-10T00:37:09.912Z,89421.06
2023-05-10T00:39:36.744Z,89427.06
2023-05-10T00:42:03.680Z,89428.78
2023-05-10T00:44:30.709Z,89422.19
2023-05-10T00:46:58.209Z,89419.53
2023-05-10T00:49:25.057Z,89418.84
2023-05-10T00:51:52.322Z,89423.22
2023-05-10T00:54:19.263Z,89426.78
2023-05-10T00:56:46.097Z,89412.97
2023-05-10T00:59:12.960Z,89418.38
2023-05-10T01:01:39.928Z,89414.25
2023-05-10T01:04:06.884Z,89414.81
2023-05-10T01:06:33.901Z,89416.41
2023-05-10T01:09:00.837Z,89411.59
2023-05-10T01:11:27.983Z,89418.13
2023-05-10T01:13:58.265Z,89410.59
2023-05-10T01:16:27.365Z,89420.06
2023-05-10T01:18:54.445Z,89417.69
2023-05-10T01:21:42.125Z,89411.44
2023-05-10T01:24:51.216Z,89410.19
2023-05-10T01:27:59.391Z,89417.97
2023-05-10T01:31:01.381Z,89428.44
2023-05-10T01:33:36.028Z,89419.00
2023-05-10T01:36:28.082Z,89419.25
2023-05-10T01:39:15.234Z,89412.19
2023-05-10T01:41:53.696Z,89413.47
2023-05-10T01:44:41.503Z,89415.63
2023-05-10T01:47:18.211Z,89408.13
2023-05-10T01:49:50.654Z,89410.78
2023-05-10T01:52:20.962Z,89404.16
2023-05-10T01:54:56.878Z,89407.59
2023-05-10T01:57:28.852Z,89406.91
2023-05-10T01:59:57.382Z,89413.16
2023-05-10T02:02:26.917Z,89402.97
2023-05-10T02:04:55.476Z,89411.91
2023-05-10T02:07:24.530Z,89400.53
2023-05-10T02:09:52.072Z,89408.72
2023-05-10T02:12:20.082Z,89405.88
2023-05-10T02:14:48.152Z,89409.50
2023-05-10T02:17:15.904Z,89408.03
2023-05-10T02:19:44.323Z,89398.84
2023-05-10T02:22:12.922Z,89399.13
2023-05-10T02:24:41.486Z,89401.81
2023-05-10T02:27:10.034Z,89401.25
2023-05-10T02:29:38.181Z,89402.22
2023-05-10T02:32:05.792Z,89408.78
2023-05-10T02:34:33.514Z,89408.72
2023-05-10T02:37:02.829Z,89403.44
2023-05-10T02:39:32.876Z,89404.88
2023-05-10T02:42:00.890Z,89405.81
2023-05-10T02:44:30.539Z,89409.41
2023-05-10T02:46:57.311Z,89407.22
2023-05-10T02:49:24.243Z,89406.69
2023-05-10T02:51:57.631Z,89412.78
2023-05-10T02:54:30.621Z,89401.59
2023-05-10T02:57:05.044Z,89405.19
2023-05-10T02:59:32.267Z,89407.72
2023-05-10T03:02:00.160Z,89406.66
2023-05-10T03:04:27.326Z,89422.66
2023-05-10T03:06:54.205Z,89418.50
2023-05-10T03:09:21.127Z,89413.16
2023-05-10T03:12:05.331Z,89411.91
2023-05-10T03:14:54.537Z,89411.44
2023-05-10T03:17:51.008Z,89416.03
2023-05-10T03:20:25.746Z,89413.31
2023-05-10T03:23:18.732Z,89424.13
2023-05-10T03:25:49.177Z,89424.50
2023-05-10T03:28:17.236Z,89423.56
2023-05-10T03:30:45.182Z,89429.34
2023-05-10T03:33:12.126Z,89429.84
2023-05-10T03:35:38.900Z,89426.97
2023-05-10T03:38:05.867Z,89436.22
2023-05-10T03:40:32.658Z,89437.22
2023-05-10T03:43:00.188Z,89444.00
2023-05-10T03:45:27.545Z,89448.31
2023-05-10T03:47:54.486Z,89444.34
2023-05-10T03:50:21.959Z,89446.16
2023-05-10T03:52:49.054Z,89460.25
2023-05-10T03:55:16.397Z,89449.63
2023-05-10T03:57:43.435Z,89459.13
2023-05-10T04:00:11.378Z,89453.13
2023-05-10T04:02:38.642Z,89448.16
2023-05-10T04:05:06.070Z,89453.47
2023-05-10T04:07:32.982Z,89457.94
2023-05-10T04:09:59.815Z,89454.59
2023-05-10T04:12:29.845Z,89449.25
2023-05-10T04:14:56.784Z,89454.34
2023-05-10T04:17:23.664Z,89459.06
2023-05-10T04:19:50.449Z,89447.63
2023-05-10T04:22:17.311Z,89456.41
2023-05-10T04:24:44.164Z,89462.00
2023-05-10T04:27:11.081Z,89464.75
2023-05-10T04:29:38.150Z,89466.94
2023-05-10T04:32:05.392Z,89457.13
2023-05-10T04:34:32.244Z,89455.19
2023-05-10T04:36:59.215Z,89461.19
2023-05-10T04:39:26.153Z,89455.00
2023-05-10T04:41:55.918Z,89464.72
2023-05-10T04:44:23.111Z,89454.09
2023-05-10T04:46:50.028Z,89453.44
2023-05-10T04:49:16.878Z,89455.63
2023-05-10T04:51:44.077Z,89459.59
2023-05-10T04:54:11.115Z,89461.31
2023-05-10T04:56:38.032Z,89466.16
2023-05-10T04:59:05.547Z,89460.16
2023-05-10T05:01:32.542Z,89467.00
2023-05-10T05:03:59.998Z,89469.16
2023-05-10T05:06:30.044Z,89469.41
2023-05-10T05:08:57.037Z,89466.06
2023-05-10T05:11:29.660Z,89447.69
2023-05-10T05:13:56.627Z,89457.22
2023-05-10T05:16:23.567Z,89452.94
2023-05-10T05:18:50.506Z,89452.50
2023-05-10T05:21:18.951Z,89450.56
2023-05-10T05:23:54.931Z,89446.44
2023-05-10T05:26:24.927Z,89453.50
2023-05-10T05:28:51.872Z,89458.09
2023-05-10T05:31:18.761Z,89447.19
2023-05-10T05:33:45.832Z,89458.16
2023-05-10T05:36:12.768Z,89450.94
2023-05-10T05:38:39.699Z,89454.34
2023-05-10T05:41:06.707Z,89449.44
2023-05-10T05:43:34.562Z,89457.47
2023-05-10T05:46:02.525Z,89458.44
2023-05-10T05:48:31.974Z,89443.63
2023-05-10T05:50:59.203Z,89465.72
2023-05-10T05:53:26.471Z,89457.22
2023-05-10T05:55:54.261Z,89462.34
2023-05-10T05:58:21.854Z,89465.25
2023-05-10T06:00:49.083Z,89473.22
2023-05-10T06:03:16.159Z,89459.63
2023-05-10T06:05:43.177Z,89467.69
2023-05-10T06:08:10.133Z,89463.78
2023-05-10T06:10:37.680Z,89461.63
2023-05-10T06:13:04.975Z,89467.44
2023-05-10T06:15:31.847Z,89467.44
2023-05-10T06:17:58.822Z,89458.22
2023-05-10T06:20:26.133Z,89461.84
2023-05-10T06:22:53.024Z,89446.06
2023-05-10T06:25:20.040Z,89450.91
2023-05-10T06:27:50.494Z,89461.16
2023-05-10T06:30:19.806Z,89470.59
2023-05-10T06:32:46.753Z,89466.75
2023-05-10T06:35:13.817Z,89465.00
2023-05-10T06:37:40.873Z,89460.88
2023-05-10T06:40:08.462Z,89464.53
2023-05-10T06:42:36.483Z,89461.56
2023-05-10T06:45:03.686Z,89471.59
2023-05-10T06:47:30.604Z,89478.13
2023-05-10T06:49:57.487Z,89468.38
2023-05-10T06:52:24.494Z,89482.50
2023-05-10T06:54:51.422Z,89485.16
2023-05-10T06:57:30.677Z,89483.75
2023-05-10T06:59:59.559Z,89482.75
2023-05-10T07:02:26.580Z,89483.97
2023-05-10T07:04:53.708Z,89489.31
2023-05-10T07:07:20.626Z,89491.97
2023-05-10T07:09:47.758Z,89496.63
2023-05-10T07:12:15.874Z,89489.28
2023-05-10T07:14:43.492Z,89491.75
2023-05-10T07:17:10.872Z,89495.63
2023-05-10T07:19:37.948Z,89496.88
2023-05-10T07:22:05.046Z,89492.25
2023-05-10T07:24:33.509Z,89490.31
2023-05-10T07:27:00.712Z,89491.97
2023-05-10T07:29:27.784Z,89494.09
2023-05-10T07:31:56.389Z,89489.03
2023-05-10T07:34:24.889Z,89492.66
2023-05-10T07:36:51.721Z,89494.63
2023-05-10T07:39:26.707Z,89500.69
2023-05-10T07:41:56.053Z,89498.72
2023-05-10T07:44:23.293Z,89498.91
2023-05-10T07:46:50.528Z,89491.06
2023-05-10T07:49:17.593Z,89479.84
2023-05-10T07:51:44.473Z,89485.22
2023-05-10T07:54:11.420Z,89492.53
2023-05-10T07:56:38.435Z,89495.81
2023-05-10T07:59:05.572Z,89482.63
2023-05-10T08:01:33.098Z,89493.91
2023-05-10T08:04:00.170Z,89495.25
2023-05-10T08:06:27.318Z,89499.41
2023-05-10T08:08:54.266Z,89483.91
2023-05-10T08:11:21.819Z,89483.53
2023-05-10T08:13:50.559Z,89478.41
2023-05-10T08:16:18.330Z,89485.34
2023-05-10T08:18:47.111Z,89489.50
2023-05-10T08:21:15.063Z,89489.31
2023-05-10T08:23:42.104Z,89500.06
2023-05-10T08:26:08.972Z,89497.03
2023-05-10T08:28:35.882Z,89495.09
2023-05-10T08:31:02.715Z,89494.25
2023-05-10T08:33:29.749Z,89498.09
2023-05-10T08:35:56.550Z,89485.66
2023-05-10T08:38:23.403Z,89482.63
2023-05-10T08:40:50.912Z,89477.38
2023-05-10T08:43:17.760Z,89476.28
2023-05-10T08:45:46.170Z,89479.84
2023-05-10T08:48:13.294Z,89474.50
2023-05-10T08:50:42.122Z,89475.00
2023-05-10T08:53:14.618Z,89479.53
2023-05-10T08:55:42.003Z,89478.03
2023-05-10T08:58:09.564Z,89464.28
2023-05-10T09:00:37.463Z,89466.09
2023-05-10T09:03:05.675Z,89467.81
2023-05-10T09:05:32.686Z,89477.31
2023-05-10T09:07:59.665Z,89469.56
2023-05-10T09:10:27.268Z,89474.97
2023-05-10T09:12:54.950Z,89475.31
2023-05-10T09:15:21.962Z,89469.84
2023-05-10T09:17:50.608Z,89464.66
2023-05-10T09:20:17.676Z,89472.44
2023-05-10T09:22:45.069Z,89466.56
2023-05-10T09:25:16.097Z,89467.63
2023-05-10T09:27:47.693Z,89460.84
2023-05-10T09:30:24.168Z,89465.41
2023-05-10T09:32:51.362Z,89471.16
2023-05-10T09:35:21.015Z,89460.41
2023-05-10T09:37:50.237Z,89444.44
2023-05-10T09:40:19.290Z,89451.88
2023-05-10T09:42:57.704Z,89454.72
2023-05-10T09:45:26.552Z,89452.06
2023-05-10T09:47:53.794Z,89459.44
2023-05-10T09:50:22.003Z,89449.50
2023-05-10T09:53:02.203Z,89448.47
2023-05-10T09:55:42.554Z,89450.50
2023-05-10T09:58:09.476Z,89447.38
2023-05-10T10:00:41.859Z,89449.75
2023-05-10T10:03:15.123Z,89452.16
2023-05-10T10:05:43.657Z,89449.13
2023-05-10T10:08:11.434Z,89445.06
2023-05-10T10:10:38.818Z,89444.00
2023-05-10T10:13:05.775Z,89442.97
2023-05-10T10:15:34.514Z,89439.94
2023-05-10T10:18:01.938Z,89434.38
2023-05-10T10:20:29.333Z,89437.84
2023-05-10T10:22:56.296Z,89437.75
2023-05-10T10:25:24.022Z,89430.69
2023-05-10T10:27:53.611Z,89439.47
2023-05-10T10:30:48.270Z,89434.66
2023-05-10T10:33:36.386Z,89438.00
2023-05-10T10:36:05.188Z,89431.84
2023-05-10T10:39:01.865Z,89435.50
2023-05-10T10:41:34.588Z,89437.13
2023-05-10T10:44:27.432Z,89436.19
2023-05-10T10:47:12.848Z,89435.56
2023-05-10T10:49:45.228Z,89439.31
2023-05-10T10:52:26.658Z,89435.94
2023-05-10T10:55:00.650Z,89442.84
2023-05-10T10:57:28.303Z,89433.28
2023-05-10T11:00:22.540Z,89438.72
2023-05-10T11:02:59.044Z,89430.63
2023-05-10T11:05:29.920Z,89441.00
2023-05-10T11:07:58.783Z,89436.44
2023-05-10T11:10:29.251Z,89435.34
2023-05-10T11:13:11.572Z,89434.06
2023-05-10T11:15:41.781Z,89431.44
2023-05-10T11:18:31.467Z,89439.75
2023-05-10T11:21:02.803Z,89437.47
2023-05-10T11:23:33.188Z,89444.75
2023-05-10T11:26:01.768Z,89443.59
2023-05-10T11:28:28.772Z,89441.44
2023-05-10T11:30:55.999Z,89442.00
2023-05-10T11:33:22.886Z,89435.13
2023-05-10T11:35:49.784Z,89433.47
2023-05-10T11:38:16.721Z,89439.53
2023-05-10T11:40:44.464Z,89438.41
2023-05-10T11:43:11.499Z,89441.78
2023-05-10T11:45:38.487Z,89434.97
2023-05-10T11:48:05.749Z,89434.06
2023-05-10T11:50:32.663Z,89438.91
2023-05-10T11:52:59.550Z,89436.94
2023-05-10T11:55:26.409Z,89440.38
2023-05-10T11:58:01.120Z,89444.63
2023-05-10T12:00:28.319Z,89439.19
2023-05-10T12:02:55.489Z,89440.22
2023-05-10T12:05:23.125Z,89440.88
2023-05-10T12:07:49.850Z,89434.53
2023-05-10T12:10:16.839Z,89429.53
2023-05-10T12:12:45.860Z,89430.84
2023-05-10T12:15:23.938Z,89428.44
2023-05-10T12:17:51.594Z,89421.69
2023-05-10T12:20:21.296Z,89436.06
2023-05-10T12:22:52.036Z,89427.50
2023-05-10T12:25:21.043Z,89428.47
2023-05-10T12:27:53.503Z,89427.28
2023-05-10T12:30:31.163Z,89425.94
2023-05-10T12:33:12.124Z,89432.75
2023-05-10T12:35:53.337Z,89429.84
2023-05-10T12:38:26.704Z,89426.91
2023-05-10T12:40:53.601Z,89429.47
2023-05-10T12:43:20.509Z,89418.00
2023-05-10T12:45:48.707Z,89415.31
2023-05-10T12:48:16.351Z,89421.84
2023-05-10T12:50:43.223Z,89419.03
2023-05-10T12:53:10.051Z,89417.19
2023-05-10T12:55:36.805Z,89421.03
2023-05-10T12:58:03.535Z,89419.81
2023-05-10T13:00:30.351Z,89416.41
2023-05-10T13:02:57.276Z,89427.03
2023-05-10T13:05:24.159Z,89427.03
2023-05-10T13:07:51.117Z,89427.16
2023-05-10T13:10:19.908Z,89430.16
2023-05-10T13:12:46.871Z,89423.25
2023-05-10T13:15:13.706Z,89420.28
2023-05-10T13:17:40.539Z,89421.91
2023-05-10T13:20:07.986Z,89428.38
2023-05-10T13:22:40.383Z,89422.25
2023-05-10T13:25:08.156Z,89423.50
2023-05-10T13:27:34.922Z,89419.25
2023-05-10T13:30:02.308Z,89415.75
2023-05-10T13:32:29.203Z,89426.34
2023-05-10T13:34:56.821Z,89419.25
2023-05-10T13:37:23.674Z,89417.59
2023-05-10T13:39:50.476Z,89423.19
2023-05-10T13:42:17.353Z,89420.00
2023-05-10T13:44:44.126Z,89422.91
2023-05-10T13:47:10.983Z,89430.03
2023-05-10T13:49:37.917Z,89419.44
2023-05-10T13:52:05.147Z,89416.16
2023-05-10T13:54:32.000Z,89426.47
2023-05-10T13:56:58.946Z,89419.13
2023-05-10T13:59:28.495Z,89420.22
2023-05-10T14:01:55.487Z,89423.94
2023-05-10T14:04:22.386Z,89430.91
2023-05-10T14:06:49.291Z,89426.09
2023-05-10T14:09:16.144Z,89425.16
2023-05-10T14:11:43.283Z,89423.88
2023-05-10T14:14:10.846Z,89420.72
2023-05-10T14:16:37.729Z,89417.25
2023-05-10T14:19:04.849Z,89423.09
2023-05-10T14:21:31.922Z,89428.41
2023-05-10T14:23:58.817Z,89433.41
2023-05-10T14:26:25.806Z,89420.72
2023-05-10T14:28:52.787Z,89433.97
2023-05-10T14:31:19.815Z,89414.19
2023-05-10T14:33:47.113Z,89428.22
2023-05-10T14:36:14.589Z,89435.94
2023-05-10T14:38:41.960Z,89434.31
2023-05-10T14:41:10.639Z,89431.38
2023-05-10T14:43:38.683Z,89425.13
2023-05-10T14:46:05.493Z,89432.38
2023-05-10T14:48:32.565Z,89433.44
2023-05-10T14:50:59.646Z,89431.38
2023-05-10T14:53:26.476Z,89433.56
2023-05-10T14:55:53.532Z,89439.16
2023-05-10T14:58:20.778Z,89430.91
2023-05-10T15:00:47.694Z,89426.81
2023-05-10T15:03:15.761Z,89438.50
2023-05-10T15:05:43.460Z,89423.16
2023-05-10T15:08:13.104Z,89425.84
2023-05-10T15:10:40.733Z,89408.06
2023-05-10T15:13:07.671Z,89398.63
2023-05-10T15:15:34.555Z,89412.84
2023-05-10T15:18:03.499Z,89421.13
2023-05-10T15:20:33.557Z,89431.59
2023-05-10T15:23:00.506Z,89433.06
2023-05-10T15:25:27.734Z,89425.22
2023-05-10T15:27:57.459Z,89422.56
2023-05-10T15:30:27.877Z,89424.56
2023-05-10T15:32:54.835Z,89430.38
2023-05-10T15:35:22.026Z,89423.56
2023-05-10T15:37:51.167Z,89434.50
2023-05-10T15:40:21.309Z,89427.69
2023-05-10T15:42:48.238Z,89425.09
2023-05-10T15:45:18.797Z,89426.13
2023-05-10T15:47:46.265Z,89451.22
2023-05-10T15:50:13.368Z,89433.72
2023-05-10T15:52:40.366Z,89441.28
2023-05-10T15:55:07.974Z,89434.25
2023-05-10T15:57:37.477Z,89439.19
2023-05-10T16:00:04.887Z,89433.59
2023-05-10T16:02:32.702Z,89446.25
2023-05-10T16:04:59.687Z,89445.81
2023-05-10T16:07:26.702Z,89463.34
2023-05-10T16:09:53.669Z,89452.69
2023-05-10T16:12:20.803Z,89461.00
2023-05-10T16:14:48.710Z,89452.69
2023-05-10T16:17:19.269Z,89465.56
2023-05-10T16:19:55.562Z,89460.53
2023-05-10T16:22:34.892Z,89453.28
2023-05-10T16:25:02.170Z,89464.91
2023-05-10T16:27:29.029Z,89459.31
2023-05-10T16:29:56.595Z,89454.94
2023-05-10T16:32:23.681Z,89462.97
2023-05-10T16:34:50.656Z,89465.63
2023-05-10T16:37:17.655Z,89460.81
2023-05-10T16:39:44.920Z,89462.81
2023-05-10T16:42:11.802Z,89457.94
2023-05-10T16:44:38.963Z,89461.84
2023-05-10T16:47:06.097Z,89456.03
2023-05-10T16:49:33.380Z,89461.63
2023-05-10T16:52:03.599Z,89455.56
2023-05-10T16:54:30.544Z,89467.94
2023-05-10T16:56:57.524Z,89468.66
2023-05-10T16:59:27.320Z,89464.53
2023-05-10T17:01:55.084Z,89475.22
2023-05-10T17:04:22.060Z,89482.28
2023-05-10T17:06:49.256Z,89495.88
2023-05-10T17:09:16.318Z,89505.38
2023-05-10T17:11:43.369Z,89506.06
2023-05-10T17:14:10.321Z,89508.03
2023-05-10T17:16:37.427Z,89526.75
2023-05-10T17:19:04.367Z,89524.78
2023-05-10T17:21:31.347Z,89516.03
2023-05-10T17:23:58.529Z,89526.72
2023-05-10T17:26:28.745Z,89523.56
2023-05-10T17:28:56.077Z,89526.22
2023-05-10T17:31:26.528Z,89521.81
2023-05-10T17:33:53.848Z,89523.25
2023-05-10T17:36:23.479Z,89532.25
2023-05-10T17:38:50.520Z,89551.16
2023-05-10T17:41:17.954Z,89556.53
2023-05-10T17:43:45.077Z,89549.22
2023-05-10T17:46:12.070Z,89559.13
2023-05-10T17:48:39.418Z,89567.44
2023-05-10T17:51:06.645Z,89573.97
2023-05-10T17:53:34.613Z,89571.97
2023-05-10T17:56:01.815Z,89548.88
2023-05-10T17:58:29.148Z,89559.47
2023-05-10T18:00:56.550Z,89579.78
2023-05-10T18:03:23.961Z,89573.34
2023-05-10T18:05:54.131Z,89567.34
2023-05-10T18:08:21.467Z,89574.31
2023-05-10T18:10:51.663Z,89568.72
2023-05-10T18:13:18.881Z,89561.63
2023-05-10T18:15:46.095Z,89566.28
2023-05-10T18:18:14.684Z,89579.66
2023-05-10T18:20:41.684Z,89580.59
2023-05-10T18:23:08.740Z,89585.81
2023-05-10T18:25:36.020Z,89593.66
2023-05-10T18:28:03.134Z,89580.06
2023-05-10T18:30:30.804Z,89592.88
2023-05-10T18:32:58.317Z,89590.16
2023-05-10T18:35:25.950Z,89600.25
2023-05-10T18:37:53.007Z,89588.38
2023-05-10T18:40:20.456Z,89594.69
2023-05-10T18:42:47.517Z,89597.34
2023-05-10T18:45:14.985Z,89605.19
2023-05-10T18:47:42.491Z,89599.69
2023-05-10T18:50:12.115Z,89606.19
2023-05-10T18:52:41.883Z,89617.47
2023-05-10T18:55:09.801Z,89624.81
2023-05-10T18:57:36.790Z,89624.13
2023-05-10T19:00:04.140Z,89624.38
2023-05-10T19:02:31.316Z,89643.31
2023-05-10T19:04:58.419Z,89630.75
2023-05-10T19:07:31.613Z,89625.75
2023-05-10T19:09:58.809Z,89626.16
2023-05-10T19:12:31.697Z,89642.47
2023-05-10T19:14:59.109Z,89631.56
2023-05-10T19:17:26.698Z,89645.91
2023-05-10T19:19:56.171Z,89634.31
2023-05-10T19:25:00.235Z,89639.00
2023-05-10T19:27:27.690Z,89631.34
2023-05-10T19:29:56.685Z,89640.06
2023-05-10T19:32:25.755Z,89645.59
2023-05-10T19:35:00.184Z,89634.72
2023-05-10T19:37:31.346Z,89627.41
2023-05-10T19:40:01.686Z,89618.72
2023-05-10T19:42:30.082Z,89629.25
2023-05-10T19:44:59.672Z,89613.19
2023-05-10T19:47:27.490Z,89620.13
2023-05-10T19:49:54.902Z,89621.56
2023-05-10T19:52:27.141Z,89626.00
2023-05-10T19:54:54.364Z,89636.13
2023-05-10T19:57:22.018Z,89637.53
2023-05-10T19:59:51.653Z,89637.94
2023-05-10T20:02:21.639Z,89638.03
2023-05-10T20:04:50.954Z,89639.94
2023-05-10T20:07:21.334Z,89635.81
2023-05-10T20:09:48.677Z,89632.03
2023-05-10T20:12:16.025Z,89630.06
2023-05-10T20:14:43.370Z,89620.69
2023-05-10T20:17:12.429Z,89620.91
2023-05-10T20:19:39.697Z,89635.41
2023-05-10T20:22:09.055Z,89621.28
2023-05-10T20:24:37.272Z,89620.47
2023-05-10T20:27:06.198Z,89630.72
2023-05-10T20:29:33.751Z,89646.31
2023-05-10T20:32:01.220Z,89641.53
2023-05-10T20:34:28.631Z,89630.31
2023-05-10T20:36:55.806Z,89621.63
2023-05-10T20:39:22.898Z,89640.44
2023-05-10T20:41:50.023Z,89647.47
2023-05-10T20:44:17.385Z,89650.13
2023-05-10T20:46:44.494Z,89632.53
2023-05-10T20:49:11.704Z,89624.91
2023-05-10T20:51:42.777Z,89625.84
2023-05-10T20:54:10.654Z,89632.63
2023-05-10T20:56:39.407Z,89641.03
2023-05-10T20:59:09.831Z,89635.31
2023-05-10T21:01:39.742Z,89620.22
2023-05-10T21:04:09.026Z,89623.00
2023-05-10T21:06:36.614Z,89619.56
2023-05-10T21:09:04.125Z,89627.47
2023-05-10T21:11:35.362Z,89626.00
2023-05-10T21:14:03.079Z,89626.16
2023-05-10T21:16:30.228Z,89622.28
2023-05-10T21:18:57.317Z,89618.44
2023-05-10T21:21:24.498Z,89621.19
2023-05-10T21:23:51.465Z,89600.59
2023-05-10T21:26:18.531Z,89605.72
2023-05-10T21:28:46.276Z,89616.00
2023-05-10T21:31:13.243Z,89614.75
2023-05-10T21:33:40.876Z,89616.31
2023-05-10T21:36:07.851Z,89620.69
2023-05-10T21:38:35.028Z,89615.00
2023-05-10T21:41:02.053Z,89609.31
2023-05-10T21:43:29.038Z,89605.00
2023-05-10T21:45:56.189Z,89606.75
2023-05-10T21:48:23.258Z,89621.63
2023-05-10T21:50:50.105Z,89617.50
2023-05-10T21:53:17.019Z,89614.00
2023-05-10T21:55:44.114Z,89609.63
2023-05-10T21:58:11.030Z,89608.69
2023-05-10T22:00:37.911Z,89610.06
2023-05-10T22:03:05.081Z,89603.78
2023-05-10T22:05:31.922Z,89597.94
2023-05-10T22:07:58.806Z,89612.81
2023-05-10T22:10:25.779Z,89614.72
2023-05-10T22:12:52.662Z,89610.25
2023-05-10T22:15:19.583Z,89597.22
2023-05-10T22:17:46.677Z,89593.75
2023-05-10T22:20:13.669Z,89601.72
2023-05-10T22:22:40.515Z,89593.94
2023-05-10T22:25:07.882Z,89587.44
2023-05-10T22:27:35.107Z,89587.06
2023-05-10T22:30:02.368Z,89589.88
2023-05-10T22:32:29.461Z,89581.44
2023-05-10T22:34:56.385Z,89587.06
2023-05-10T22:37:23.385Z,89586.75
2023-05-10T22:39:50.387Z,89580.91
2023-05-10T22:42:17.320Z,89583.09
2023-05-10T22:44:44.140Z,89579.00
2023-05-10T22:47:11.187Z,89585.25
2023-05-10T22:49:38.243Z,89589.28
2023-05-10T22:52:05.128Z,89584.78
2023-05-10T22:54:33.698Z,89584.63
2023-05-10T22:57:01.875Z,89583.16
2023-05-10T22:59:28.919Z,89574.50
2023-05-10T23:01:56.117Z,89572.78
2023-05-10T23:04:23.048Z,89571.03
2023-05-10T23:06:49.914Z,89558.94
2023-05-10T23:09:17.137Z,89565.41
2023-05-10T23:11:44.166Z,89563.72
2023-05-10T23:14:10.988Z,89566.75
2023-05-10T23:16:38.181Z,89563.34
2023-05-10T23:19:05.227Z,89559.66
2023-05-10T23:21:32.361Z,89564.31
2023-05-10T23:23:59.362Z,89568.66
2023-05-10T23:26:26.313Z,89563.88
2023-05-10T23:28:53.150Z,89556.91
2023-05-10T23:31:20.132Z,89572.06
2023-05-10T23:33:47.066Z,89565.72
2023-05-10T23:36:13.905Z,89562.06
2023-05-10T23:38:40.821Z,89560.59
2023-05-10T23:41:07.678Z,89548.13
2023-05-10T23:43:34.645Z,89548.13
2023-05-10T23:46:01.987Z,89555.09
2023-05-10T23:48:29.001Z,89547.53
2023-05-10T23:50:55.910Z,89546.59
2023-05-10T23:53:22.831Z,89555.31
2023-05-10T23:55:49.683Z,89549.00
2023-05-10T23:58:16.605Z,89540.66
